sensor_id;sensor_type;location;lat;lon;timestamp;P1;durP1;ratioP1;P2;durP2;ratioP2
16866;SDS011;8550;52.596;13.320;2022-09-13T00:01:25;4.00;;;1.92;;
16866;SDS011;8550;52.596;13.320;2022-09-13T00:06:27;4.47;;;2.07;;
16866;SDS011;8550;52.596;13.320;2022-09-13T00:11:30;4.78;;;2.58;;
16866;SDS011;8550;52.596;13.320;2022-09-13T00:16:32;3.95;;;1.80;;
16866;SDS011;8550;52.596;13.320;2022-09-13T00:21:34;4.87;;;2.30;;
16866;SDS011;8550;52.596;13.320;2022-09-13T00:26:37;4.05;;;2.20;;
16866;SDS011;8550;52.596;13.320;2022-09-13T00:31:39;5.13;;;2.35;;
16866;SDS011;8550;52.596;13.320;2022-09-13T00:36:41;3.97;;;2.00;;
16866;SDS011;8550;52.596;13.320;2022-09-13T00:41:44;4.43;;;2.10;;
16866;SDS011;8550;52.596;13.320;2022-09-13T00:46:46;4.25;;;2.38;;
16866;SDS011;8550;52.596;13.320;2022-09-13T00:51:50;4.45;;;2.03;;
16866;SDS011;8550;52.596;13.320;2022-09-13T00:56:57;5.20;;;2.30;;
16866;SDS011;8550;52.596;13.320;2022-09-13T01:02:02;5.07;;;1.90;;
16866;SDS011;8550;52.596;13.320;2022-09-13T01:07:05;4.50;;;1.77;;
16866;SDS011;8550;52.596;13.320;2022-09-13T01:12:12;3.70;;;1.97;;
16866;SDS011;8550;52.596;13.320;2022-09-13T01:17:19;4.40;;;2.22;;
16866;SDS011;8550;52.596;13.320;2022-09-13T01:33:34;4.73;;;2.03;;
16866;SDS011;8550;52.596;13.320;2022-09-13T01:38:48;4.10;;;1.90;;
16866;SDS011;8550;52.596;13.320;2022-09-13T01:43:57;3.97;;;2.20;;
16866;SDS011;8550;52.596;13.320;2022-09-13T01:49:13;4.17;;;2.13;;
16866;SDS011;8550;52.596;13.320;2022-09-13T01:54:22;4.20;;;2.40;;
16866;SDS011;8550;52.596;13.320;2022-09-13T01:59:33;4.65;;;2.30;;
16866;SDS011;8550;52.596;13.320;2022-09-13T02:04:41;4.90;;;2.43;;
16866;SDS011;8550;52.596;13.320;2022-09-13T02:09:46;4.80;;;2.45;;
16866;SDS011;8550;52.596;13.320;2022-09-13T02:14:52;4.22;;;1.90;;
16866;SDS011;8550;52.596;13.320;2022-09-13T02:19:59;5.47;;;2.33;;
16866;SDS011;8550;52.596;13.320;2022-09-13T02:25:05;6.30;;;2.60;;
16866;SDS011;8550;52.596;13.320;2022-09-13T02:30:10;4.35;;;2.08;;
16866;SDS011;8550;52.596;13.320;2022-09-13T02:35:16;4.38;;;2.17;;
16866;SDS011;8550;52.596;13.320;2022-09-13T02:40:24;5.60;;;2.40;;
16866;SDS011;8550;52.596;13.320;2022-09-13T02:45:29;6.13;;;2.65;;
16866;SDS011;8550;52.596;13.320;2022-09-13T02:50:37;4.45;;;1.98;;
16866;SDS011;8550;52.596;13.320;2022-09-13T02:55:50;6.33;;;2.20;;
16866;SDS011;8550;52.596;13.320;2022-09-13T03:00:56;4.80;;;2.50;;
16866;SDS011;8550;52.596;13.320;2022-09-13T03:06:00;5.60;;;2.85;;
16866;SDS011;8550;52.596;13.320;2022-09-13T03:11:03;6.30;;;3.20;;
16866;SDS011;8550;52.596;13.320;2022-09-13T03:16:21;6.30;;;3.17;;
16866;SDS011;8550;52.596;13.320;2022-09-13T03:21:40;5.25;;;3.03;;
16866;SDS011;8550;52.596;13.320;2022-09-13T03:26:55;6.93;;;2.70;;
16866;SDS011;8550;52.596;13.320;2022-09-13T03:32:14;5.63;;;3.17;;
16866;SDS011;8550;52.596;13.320;2022-09-13T03:37:23;8.75;;;3.20;;
16866;SDS011;8550;52.596;13.320;2022-09-13T03:42:30;7.20;;;3.10;;
16866;SDS011;8550;52.596;13.320;2022-09-13T03:47:35;12.90;;;3.60;;
16866;SDS011;8550;52.596;13.320;2022-09-13T03:52:41;5.40;;;2.60;;
16866;SDS011;8550;52.596;13.320;2022-09-13T03:57:43;6.97;;;2.97;;
16866;SDS011;8550;52.596;13.320;2022-09-13T04:02:46;5.93;;;3.07;;
16866;SDS011;8550;52.596;13.320;2022-09-13T04:07:49;5.83;;;3.23;;
16866;SDS011;8550;52.596;13.320;2022-09-13T04:12:50;5.32;;;3.20;;
16866;SDS011;8550;52.596;13.320;2022-09-13T04:17:54;4.88;;;2.70;;
16866;SDS011;8550;52.596;13.320;2022-09-13T04:22:57;7.10;;;2.90;;
16866;SDS011;8550;52.596;13.320;2022-09-13T04:27:59;5.55;;;3.63;;
16866;SDS011;8550;52.596;13.320;2022-09-13T04:33:01;7.25;;;3.70;;
16866;SDS011;8550;52.596;13.320;2022-09-13T04:38:04;7.13;;;2.93;;
16866;SDS011;8550;52.596;13.320;2022-09-13T04:43:06;9.93;;;3.58;;
16866;SDS011;8550;52.596;13.320;2022-09-13T04:48:07;8.25;;;4.18;;
16866;SDS011;8550;52.596;13.320;2022-09-13T04:53:11;8.30;;;3.83;;
16866;SDS011;8550;52.596;13.320;2022-09-13T04:58:13;7.23;;;3.40;;
16866;SDS011;8550;52.596;13.320;2022-09-13T05:03:14;7.90;;;3.95;;
16866;SDS011;8550;52.596;13.320;2022-09-13T05:08:17;7.57;;;3.65;;
16866;SDS011;8550;52.596;13.320;2022-09-13T05:13:19;6.93;;;3.30;;
16866;SDS011;8550;52.596;13.320;2022-09-13T05:18:21;7.45;;;3.67;;
16866;SDS011;8550;52.596;13.320;2022-09-13T05:23:25;7.82;;;3.58;;
16866;SDS011;8550;52.596;13.320;2022-09-13T05:28:29;8.20;;;3.77;;
16866;SDS011;8550;52.596;13.320;2022-09-13T05:33:33;5.88;;;3.22;;
16866;SDS011;8550;52.596;13.320;2022-09-13T05:38:37;8.50;;;3.92;;
16866;SDS011;8550;52.596;13.320;2022-09-13T05:43:39;7.20;;;4.00;;
16866;SDS011;8550;52.596;13.320;2022-09-13T05:48:41;7.03;;;4.60;;
16866;SDS011;8550;52.596;13.320;2022-09-13T05:53:45;7.13;;;3.60;;
16866;SDS011;8550;52.596;13.320;2022-09-13T05:58:48;8.50;;;4.15;;
16866;SDS011;8550;52.596;13.320;2022-09-13T06:03:51;6.07;;;3.63;;
16866;SDS011;8550;52.596;13.320;2022-09-13T06:08:56;7.43;;;4.30;;
16866;SDS011;8550;52.596;13.320;2022-09-13T06:13:58;8.02;;;3.45;;
16866;SDS011;8550;52.596;13.320;2022-09-13T06:19:00;7.47;;;4.17;;
16866;SDS011;8550;52.596;13.320;2022-09-13T06:24:03;6.88;;;3.45;;
16866;SDS011;8550;52.596;13.320;2022-09-13T06:29:05;7.13;;;4.47;;
16866;SDS011;8550;52.596;13.320;2022-09-13T06:34:09;6.33;;;3.80;;
16866;SDS011;8550;52.596;13.320;2022-09-13T06:39:13;11.07;;;4.20;;
16866;SDS011;8550;52.596;13.320;2022-09-13T06:44:14;7.60;;;4.60;;
16866;SDS011;8550;52.596;13.320;2022-09-13T06:49:16;9.25;;;4.78;;
16866;SDS011;8550;52.596;13.320;2022-09-13T06:54:20;8.23;;;4.50;;
16866;SDS011;8550;52.596;13.320;2022-09-13T06:59:22;10.25;;;5.10;;
16866;SDS011;8550;52.596;13.320;2022-09-13T07:04:23;8.68;;;4.82;;
16866;SDS011;8550;52.596;13.320;2022-09-13T07:09:31;9.33;;;5.40;;
16866;SDS011;8550;52.596;13.320;2022-09-13T07:14:33;8.43;;;4.90;;
16866;SDS011;8550;52.596;13.320;2022-09-13T07:19:35;9.38;;;4.97;;
16866;SDS011;8550;52.596;13.320;2022-09-13T07:24:38;8.33;;;5.03;;
16866;SDS011;8550;52.596;13.320;2022-09-13T07:29:40;7.70;;;4.80;;
16866;SDS011;8550;52.596;13.320;2022-09-13T07:34:42;8.63;;;5.10;;
16866;SDS011;8550;52.596;13.320;2022-09-13T07:39:45;10.15;;;5.47;;
16866;SDS011;8550;52.596;13.320;2022-09-13T07:44:48;10.27;;;5.03;;
16866;SDS011;8550;52.596;13.320;2022-09-13T07:49:49;7.07;;;4.13;;
16866;SDS011;8550;52.596;13.320;2022-09-13T07:54:52;9.45;;;4.45;;
16866;SDS011;8550;52.596;13.320;2022-09-13T07:59:56;10.50;;;5.43;;
16866;SDS011;8550;52.596;13.320;2022-09-13T08:04:59;9.02;;;4.78;;
16866;SDS011;8550;52.596;13.320;2022-09-13T08:10:02;11.52;;;5.15;;
16866;SDS011;8550;52.596;13.320;2022-09-13T08:15:04;9.57;;;5.27;;
16866;SDS011;8550;52.596;13.320;2022-09-13T08:20:07;10.10;;;5.13;;
16866;SDS011;8550;52.596;13.320;2022-09-13T08:25:11;8.45;;;5.53;;
16866;SDS011;8550;52.596;13.320;2022-09-13T08:30:12;9.48;;;5.22;;
16866;SDS011;8550;52.596;13.320;2022-09-13T08:35:14;9.80;;;5.30;;
16866;SDS011;8550;52.596;13.320;2022-09-13T08:40:17;8.45;;;4.72;;
16866;SDS011;8550;52.596;13.320;2022-09-13T08:45:19;8.25;;;4.40;;
16866;SDS011;8550;52.596;13.320;2022-09-13T08:50:23;8.00;;;5.23;;
16866;SDS011;8550;52.596;13.320;2022-09-13T08:55:32;7.50;;;4.20;;
16866;SDS011;8550;52.596;13.320;2022-09-13T09:00:43;9.52;;;4.57;;
16866;SDS011;8550;52.596;13.320;2022-09-13T09:05:50;8.80;;;4.70;;
16866;SDS011;8550;52.596;13.320;2022-09-13T09:10:54;10.40;;;5.70;;
16866;SDS011;8550;52.596;13.320;2022-09-13T09:15:59;10.65;;;4.55;;
16866;SDS011;8550;52.596;13.320;2022-09-13T09:21:06;7.85;;;4.25;;
16866;SDS011;8550;52.596;13.320;2022-09-13T09:26:15;8.73;;;4.03;;
16866;SDS011;8550;52.596;13.320;2022-09-13T09:31:21;7.72;;;4.53;;
16866;SDS011;8550;52.596;13.320;2022-09-13T09:36:30;13.40;;;6.10;;
16866;SDS011;8550;52.596;13.320;2022-09-13T09:41:40;6.53;;;4.00;;
16866;SDS011;8550;52.596;13.320;2022-09-13T09:46:45;10.05;;;6.05;;
16866;SDS011;8550;52.596;13.320;2022-09-13T09:51:50;8.10;;;3.95;;
16866;SDS011;8550;52.596;13.320;2022-09-13T09:56:54;9.30;;;4.87;;
16866;SDS011;8550;52.596;13.320;2022-09-13T10:01:56;7.50;;;4.63;;
16866;SDS011;8550;52.596;13.320;2022-09-13T10:07:09;10.73;;;4.45;;
16866;SDS011;8550;52.596;13.320;2022-09-13T10:12:25;6.88;;;3.50;;
16866;SDS011;8550;52.596;13.320;2022-09-13T10:17:28;8.73;;;4.10;;
16866;SDS011;8550;52.596;13.320;2022-09-13T10:22:30;8.43;;;4.05;;
16866;SDS011;8550;52.596;13.320;2022-09-13T10:27:35;7.07;;;4.03;;
16866;SDS011;8550;52.596;13.320;2022-09-13T10:32:41;8.70;;;4.17;;
16866;SDS011;8550;52.596;13.320;2022-09-13T10:37:54;7.22;;;3.53;;
16866;SDS011;8550;52.596;13.320;2022-09-13T10:42:58;8.57;;;3.75;;
16866;SDS011;8550;52.596;13.320;2022-09-13T10:48:04;7.77;;;4.10;;
16866;SDS011;8550;52.596;13.320;2022-09-13T10:53:25;8.00;;;4.10;;
16866;SDS011;8550;52.596;13.320;2022-09-13T10:58:34;7.68;;;4.20;;
16866;SDS011;8550;52.596;13.320;2022-09-13T11:03:40;8.95;;;4.13;;
16866;SDS011;8550;52.596;13.320;2022-09-13T11:09:03;8.93;;;4.37;;
16866;SDS011;8550;52.596;13.320;2022-09-13T11:14:17;9.95;;;4.72;;
16866;SDS011;8550;52.596;13.320;2022-09-13T11:19:44;8.18;;;4.28;;
16866;SDS011;8550;52.596;13.320;2022-09-13T11:25:12;9.63;;;4.93;;
16866;SDS011;8550;52.596;13.320;2022-09-13T11:30:29;9.20;;;4.30;;
16866;SDS011;8550;52.596;13.320;2022-09-13T11:35:41;7.32;;;4.15;;
16866;SDS011;8550;52.596;13.320;2022-09-13T11:40:50;8.67;;;4.30;;
16866;SDS011;8550;52.596;13.320;2022-09-13T11:46:02;9.10;;;4.63;;
16866;SDS011;8550;52.596;13.320;2022-09-13T11:51:11;8.65;;;4.68;;
16866;SDS011;8550;52.596;13.320;2022-09-13T11:56:20;8.20;;;4.68;;
16866;SDS011;8550;52.596;13.320;2022-09-13T12:01:28;9.67;;;4.37;;
16866;SDS011;8550;52.596;13.320;2022-09-13T12:06:34;7.63;;;4.68;;
16866;SDS011;8550;52.596;13.320;2022-09-13T12:11:40;9.80;;;4.80;;
16866;SDS011;8550;52.596;13.320;2022-09-13T12:16:47;8.57;;;4.67;;
16866;SDS011;8550;52.596;13.320;2022-09-13T12:21:52;10.07;;;5.18;;
16866;SDS011;8550;52.596;13.320;2022-09-13T12:26:57;9.48;;;4.75;;
16866;SDS011;8550;52.596;13.320;2022-09-13T12:32:05;8.07;;;4.80;;
16866;SDS011;8550;52.596;13.320;2022-09-13T12:37:11;8.53;;;4.47;;
16866;SDS011;8550;52.596;13.320;2022-09-13T12:42:35;8.07;;;4.43;;
16866;SDS011;8550;52.596;13.320;2022-09-13T12:47:54;7.80;;;4.82;;
16866;SDS011;8550;52.596;13.320;2022-09-13T12:53:21;8.17;;;3.73;;
16866;SDS011;8550;52.596;13.320;2022-09-13T12:58:41;6.45;;;3.53;;
16866;SDS011;8550;52.596;13.320;2022-09-13T13:04:02;6.45;;;2.90;;
16866;SDS011;8550;52.596;13.320;2022-09-13T13:09:19;6.17;;;2.93;;
16866;SDS011;8550;52.596;13.320;2022-09-13T13:14:28;5.55;;;2.47;;
16866;SDS011;8550;52.596;13.320;2022-09-13T13:19:55;4.45;;;1.92;;
16866;SDS011;8550;52.596;13.320;2022-09-13T13:24:57;3.20;;;1.53;;
16866;SDS011;8550;52.596;13.320;2022-09-13T13:35:55;4.85;;;1.88;;
16866;SDS011;8550;52.596;13.320;2022-09-13T13:41:04;4.15;;;1.98;;
16866;SDS011;8550;52.596;13.320;2022-09-13T13:46:28;3.83;;;1.90;;
16866;SDS011;8550;52.596;13.320;2022-09-13T13:51:33;4.93;;;2.25;;
16866;SDS011;8550;52.596;13.320;2022-09-13T13:56:44;4.72;;;2.40;;
16866;SDS011;8550;52.596;13.320;2022-09-13T14:01:50;4.97;;;2.10;;
16866;SDS011;8550;52.596;13.320;2022-09-13T14:06:57;4.50;;;2.08;;
16866;SDS011;8550;52.596;13.320;2022-09-13T14:12:14;4.65;;;1.92;;
16866;SDS011;8550;52.596;13.320;2022-09-13T14:17:26;4.57;;;2.13;;
16866;SDS011;8550;52.596;13.320;2022-09-13T14:22:38;4.80;;;2.13;;
16866;SDS011;8550;52.596;13.320;2022-09-13T14:27:40;4.13;;;2.10;;
16866;SDS011;8550;52.596;13.320;2022-09-13T14:32:44;3.97;;;1.90;;
16866;SDS011;8550;52.596;13.320;2022-09-13T14:37:49;4.03;;;1.77;;
16866;SDS011;8550;52.596;13.320;2022-09-13T14:42:50;6.18;;;1.98;;
16866;SDS011;8550;52.596;13.320;2022-09-13T14:47:54;3.75;;;1.55;;
16866;SDS011;8550;52.596;13.320;2022-09-13T14:53:04;4.10;;;1.87;;
16866;SDS011;8550;52.596;13.320;2022-09-13T14:58:12;3.85;;;1.80;;
16866;SDS011;8550;52.596;13.320;2022-09-13T15:03:15;3.22;;;1.42;;
16866;SDS011;8550;52.596;13.320;2022-09-13T15:08:26;3.77;;;1.80;;
16866;SDS011;8550;52.596;13.320;2022-09-13T15:13:40;4.50;;;2.30;;
16866;SDS011;8550;52.596;13.320;2022-09-13T15:18:43;4.68;;;1.92;;
16866;SDS011;8550;52.596;13.320;2022-09-13T15:23:49;4.55;;;2.33;;
16866;SDS011;8550;52.596;13.320;2022-09-13T15:28:52;5.13;;;2.00;;
16866;SDS011;8550;52.596;13.320;2022-09-13T15:34:11;7.40;;;2.65;;
16866;SDS011;8550;52.596;13.320;2022-09-13T15:39:24;4.68;;;2.40;;
16866;SDS011;8550;52.596;13.320;2022-09-13T15:44:26;5.93;;;3.40;;
16866;SDS011;8550;52.596;13.320;2022-09-13T15:49:29;6.25;;;2.25;;
16866;SDS011;8550;52.596;13.320;2022-09-13T15:54:34;8.35;;;3.05;;
16866;SDS011;8550;52.596;13.320;2022-09-13T15:59:38;8.00;;;2.97;;
16866;SDS011;8550;52.596;13.320;2022-09-13T16:04:40;6.23;;;3.10;;
16866;SDS011;8550;52.596;13.320;2022-09-13T16:09:44;6.60;;;2.47;;
16866;SDS011;8550;52.596;13.320;2022-09-13T16:14:45;5.40;;;2.40;;
16866;SDS011;8550;52.596;13.320;2022-09-13T16:19:47;5.70;;;2.60;;
16866;SDS011;8550;52.596;13.320;2022-09-13T16:24:50;6.82;;;2.90;;
16866;SDS011;8550;52.596;13.320;2022-09-13T16:29:52;6.70;;;2.67;;
16866;SDS011;8550;52.596;13.320;2022-09-13T16:34:54;6.50;;;2.63;;
16866;SDS011;8550;52.596;13.320;2022-09-13T16:39:58;5.40;;;2.67;;
16866;SDS011;8550;52.596;13.320;2022-09-13T16:44:59;6.57;;;2.22;;
16866;SDS011;8550;52.596;13.320;2022-09-13T16:50:01;5.50;;;2.37;;
16866;SDS011;8550;52.596;13.320;2022-09-13T16:55:05;7.27;;;3.10;;
16866;SDS011;8550;52.596;13.320;2022-09-13T17:00:07;4.88;;;2.65;;
16866;SDS011;8550;52.596;13.320;2022-09-13T17:05:10;6.60;;;3.00;;
16866;SDS011;8550;52.596;13.320;2022-09-13T17:10:13;5.30;;;2.53;;
16866;SDS011;8550;52.596;13.320;2022-09-13T17:15:16;6.43;;;2.85;;
16866;SDS011;8550;52.596;13.320;2022-09-13T17:20:18;6.32;;;3.15;;
16866;SDS011;8550;52.596;13.320;2022-09-13T17:25:21;6.17;;;3.20;;
16866;SDS011;8550;52.596;13.320;2022-09-13T17:30:24;6.63;;;3.45;;
16866;SDS011;8550;52.596;13.320;2022-09-13T17:35:26;6.70;;;3.40;;
16866;SDS011;8550;52.596;13.320;2022-09-13T17:40:30;8.03;;;2.67;;
16866;SDS011;8550;52.596;13.320;2022-09-13T17:45:32;6.17;;;3.13;;
16866;SDS011;8550;52.596;13.320;2022-09-13T17:50:36;4.97;;;2.85;;
16866;SDS011;8550;52.596;13.320;2022-09-13T17:55:45;23.83;;;13.75;;
16866;SDS011;8550;52.596;13.320;2022-09-13T18:00:48;5.93;;;2.20;;
16866;SDS011;8550;52.596;13.320;2022-09-13T18:05:53;4.80;;;2.05;;
16866;SDS011;8550;52.596;13.320;2022-09-13T18:11:01;5.13;;;2.25;;
16866;SDS011;8550;52.596;13.320;2022-09-13T18:16:04;4.53;;;2.10;;
16866;SDS011;8550;52.596;13.320;2022-09-13T18:21:07;5.10;;;2.35;;
16866;SDS011;8550;52.596;13.320;2022-09-13T18:26:11;4.10;;;2.05;;
16866;SDS011;8550;52.596;13.320;2022-09-13T18:31:15;16.50;;;8.73;;
16866;SDS011;8550;52.596;13.320;2022-09-13T18:36:17;3.53;;;1.77;;
16866;SDS011;8550;52.596;13.320;2022-09-13T18:41:23;5.38;;;2.10;;
16866;SDS011;8550;52.596;13.320;2022-09-13T18:46:27;6.63;;;2.25;;
16866;SDS011;8550;52.596;13.320;2022-09-13T18:51:31;7.13;;;2.13;;
16866;SDS011;8550;52.596;13.320;2022-09-13T18:56:35;5.78;;;1.92;;
16866;SDS011;8550;52.596;13.320;2022-09-13T19:01:38;6.75;;;2.33;;
16866;SDS011;8550;52.596;13.320;2022-09-13T19:06:41;11.43;;;5.70;;
16866;SDS011;8550;52.596;13.320;2022-09-13T19:11:46;4.95;;;2.08;;
16866;SDS011;8550;52.596;13.320;2022-09-13T19:16:49;5.50;;;2.30;;
16866;SDS011;8550;52.596;13.320;2022-09-13T19:21:52;4.77;;;2.70;;
16866;SDS011;8550;52.596;13.320;2022-09-13T19:26:55;6.50;;;2.80;;
16866;SDS011;8550;52.596;13.320;2022-09-13T19:31:57;5.10;;;2.30;;
16866;SDS011;8550;52.596;13.320;2022-09-13T19:36:59;5.90;;;2.60;;
16866;SDS011;8550;52.596;13.320;2022-09-13T19:42:02;5.13;;;2.60;;
16866;SDS011;8550;52.596;13.320;2022-09-13T19:47:04;5.28;;;2.60;;
16866;SDS011;8550;52.596;13.320;2022-09-13T19:52:06;4.88;;;2.45;;
16866;SDS011;8550;52.596;13.320;2022-09-13T19:57:09;5.40;;;3.00;;
16866;SDS011;8550;52.596;13.320;2022-09-13T20:02:11;5.72;;;2.70;;
16866;SDS011;8550;52.596;13.320;2022-09-13T20:07:13;5.63;;;3.08;;
16866;SDS011;8550;52.596;13.320;2022-09-13T20:12:17;8.53;;;3.20;;
16866;SDS011;8550;52.596;13.320;2022-09-13T20:17:20;6.00;;;3.10;;
16866;SDS011;8550;52.596;13.320;2022-09-13T20:22:22;8.38;;;3.10;;
16866;SDS011;8550;52.596;13.320;2022-09-13T20:27:26;6.93;;;2.63;;
16866;SDS011;8550;52.596;13.320;2022-09-13T20:32:28;5.03;;;2.10;;
16866;SDS011;8550;52.596;13.320;2022-09-13T20:37:30;4.95;;;2.50;;
16866;SDS011;8550;52.596;13.320;2022-09-13T20:42:34;5.30;;;2.38;;
16866;SDS011;8550;52.596;13.320;2022-09-13T20:47:36;5.57;;;2.47;;
16866;SDS011;8550;52.596;13.320;2022-09-13T20:52:38;5.18;;;2.30;;
16866;SDS011;8550;52.596;13.320;2022-09-13T20:57:41;4.63;;;2.42;;
16866;SDS011;8550;52.596;13.320;2022-09-13T21:02:43;4.50;;;2.07;;
16866;SDS011;8550;52.596;13.320;2022-09-13T21:07:45;7.57;;;2.20;;
16866;SDS011;8550;52.596;13.320;2022-09-13T21:13:06;7.32;;;1.67;;
16866;SDS011;8550;52.596;13.320;2022-09-13T21:18:08;5.47;;;1.65;;
16866;SDS011;8550;52.596;13.320;2022-09-13T21:23:10;4.50;;;1.67;;
16866;SDS011;8550;52.596;13.320;2022-09-13T21:28:13;3.45;;;1.70;;
16866;SDS011;8550;52.596;13.320;2022-09-13T21:33:15;6.57;;;2.15;;
16866;SDS011;8550;52.596;13.320;2022-09-13T21:38:17;5.70;;;2.20;;
16866;SDS011;8550;52.596;13.320;2022-09-13T21:43:21;3.67;;;1.67;;
16866;SDS011;8550;52.596;13.320;2022-09-13T21:48:25;7.20;;;1.45;;
16866;SDS011;8550;52.596;13.320;2022-09-13T21:53:29;5.60;;;1.70;;
16866;SDS011;8550;52.596;13.320;2022-09-13T21:58:35;6.63;;;1.80;;
16866;SDS011;8550;52.596;13.320;2022-09-13T22:03:39;4.55;;;1.40;;
16866;SDS011;8550;52.596;13.320;2022-09-13T22:08:43;4.22;;;1.58;;
16866;SDS011;8550;52.596;13.320;2022-09-13T22:13:47;7.70;;;1.37;;
16866;SDS011;8550;52.596;13.320;2022-09-13T22:18:51;4.78;;;1.60;;
16866;SDS011;8550;52.596;13.320;2022-09-13T22:23:54;7.80;;;2.90;;
16866;SDS011;8550;52.596;13.320;2022-09-13T22:28:58;5.77;;;1.67;;
16866;SDS011;8550;52.596;13.320;2022-09-13T22:34:00;5.72;;;1.40;;
16866;SDS011;8550;52.596;13.320;2022-09-13T22:39:02;3.25;;;1.33;;
16866;SDS011;8550;52.596;13.320;2022-09-13T22:44:06;5.50;;;1.60;;
16866;SDS011;8550;52.596;13.320;2022-09-13T22:49:10;3.97;;;1.30;;
16866;SDS011;8550;52.596;13.320;2022-09-13T22:54:13;6.75;;;1.60;;
16866;SDS011;8550;52.596;13.320;2022-09-13T22:59:17;6.13;;;1.35;;
16866;SDS011;8550;52.596;13.320;2022-09-13T23:04:21;3.33;;;1.00;;
16866;SDS011;8550;52.596;13.320;2022-09-13T23:09:22;4.15;;;1.38;;
16866;SDS011;8550;52.596;13.320;2022-09-13T23:14:25;7.15;;;1.20;;
16866;SDS011;8550;52.596;13.320;2022-09-13T23:19:27;6.30;;;1.37;;
16866;SDS011;8550;52.596;13.320;2022-09-13T23:24:29;5.95;;;1.38;;
16866;SDS011;8550;52.596;13.320;2022-09-13T23:29:32;5.72;;;1.50;;
16866;SDS011;8550;52.596;13.320;2022-09-13T23:34:35;4.20;;;1.30;;
16866;SDS011;8550;52.596;13.320;2022-09-13T23:39:37;5.07;;;0.97;;
16866;SDS011;8550;52.596;13.320;2022-09-13T23:44:40;3.45;;;1.40;;
16866;SDS011;8550;52.596;13.320;2022-09-13T23:49:42;4.15;;;1.23;;
16866;SDS011;8550;52.596;13.320;2022-09-13T23:54:45;7.20;;;0.90;;
16866;SDS011;8550;52.596;13.320;2022-09-13T23:59:48;7.45;;;1.52;;
